This is the latest recevied weather packets stored in our database for station/object KD7CIH. If no packets are shown the sender has not sent any weather packets the latest 10 day(s).
| Time | Temp. | Humidity | Pressure | Rain* | Wind** | Luminosity | Snow |
|---|---|---|---|---|---|---|---|
| 1787624473 | 20° C | 45% | 1020.6 hPa | 0 mm | - | - | - |
| 1787624174 | 19.44° C | 46% | 1020.5 hPa | 0 mm | - | - | - |
| 1787623746 | 19.44° C | 47% | 1020.5 hPa | 0 mm | - | - | - |
| 1787623445 | 20° C | 46% | 1020.2 hPa | 0 mm | - | - | - |
| 1787623145 | 20° C | 46% | 1020.2 hPa | 0 mm | - | - | - |
| 1787622846 | 20.56° C | 44% | 1020 hPa | 0 mm | - | - | - |
| 1787622546 | 20.56° C | 43% | 1019.9 hPa | 0 mm | - | - | - |
| 1787622246 | 20.56° C | 41% | 1019.9 hPa | 0 mm | - | - | - |
| 1787621946 | 20.56° C | 41% | 1020.5 hPa | 0 mm | - | - | - |
| 1787621647 | 21.11° C | 40% | 1020.7 hPa | 0 mm | - | - | - |
| 1787621345 | 21.11° C | 40% | 1020.9 hPa | 0 mm | - | - | - |
| 1787621045 | 21.67° C | 37% | 1021 hPa | 0 mm | - | - | - |
| 1787620746 | 22.22° C | 34% | 1021.2 hPa | 0 mm | - | - | - |
| 1787620445 | 22.78° C | 32% | 1021.1 hPa | 0 mm | - | - | - |
| 1787620273 | 22.78° C | 31% | 1021.1 hPa | 0 mm | - | - | - |
| 1787619845 | 23.33° C | 30% | 1021 hPa | 0 mm | - | - | - |
| 1787619548 | 23.33° C | 30% | 1021 hPa | 0 mm | - | - | - |
| 1787619246 | 23.33° C | 30% | 1021.1 hPa | 0 mm | - | - | - |
| 1787618947 | 23.33° C | 29% | 1021.2 hPa | 0 mm | - | - | - |
| 1787618646 | 22.78° C | 31% | 1021 hPa | 0 mm | - | - | - |
| 1787618348 | 22.78° C | 31% | 1021.1 hPa | 0 mm | - | - | - |
| 1787618047 | 22.22° C | 32% | 1021.2 hPa | 0 mm | - | - | - |
| 1787617746 | 22.22° C | 34% | 1021.1 hPa | 0 mm | - | - | - |
| 1787617446 | 22.22° C | 35% | 1021.1 hPa | 0 mm | - | - | - |
| 1787617147 | 21.67° C | 34% | 1021 hPa | 0 mm | - | - | - |
* Rain latest hour (hover to see other rain measurements)
** Current wind speed in m/s (hover to see current wind gust speed)